Time;durP1;ratioP1;P1;durP2;ratioP2;P2;SDS_P1;SDS_P2;PMS_P1;PMS_P2;Temp;Humidity;BMP_temperature;BMP_pressure;BME280_temperature;BME280_humidity;BME280_pressure;Samples;Min_cycle;Max_cycle;Signal;HPM_P1;HPM_P2
2023/10/11 00:01:04;;;;;;;8.27;6.28;;;14.00;99.90;;;-141.84;92.38;19671.56;5014454;28;20908;-66
2023/10/11 00:03:35;;;;;;;7.90;5.70;;;14.00;99.90;;;-141.84;91.21;19683.78;5022100;28;20230;-66
2023/10/11 00:06:05;;;;;;;9.32;5.60;;;14.10;99.90;;;-141.84;90.34;19700.03;5022115;28;20277;-65
2023/10/11 00:08:40;;;;;;;8.02;5.60;;;14.10;99.90;;;-141.84;89.07;19726.44;5022086;28;20328;-66
2023/10/11 00:11:09;;;;;;;8.30;5.53;;;14.20;99.90;;;-141.84;86.93;19797.59;5014338;28;20205;-64
2023/10/11 00:13:40;;;;;;;9.02;5.30;;;14.30;99.90;;;-141.84;83.68;19872.78;5021704;28;20771;-65
2023/10/11 00:16:13;;;;;;;8.18;5.35;;;14.60;99.90;;;-141.84;81.35;19899.19;5021790;28;20237;-65
2023/10/11 00:18:43;;;;;;;8.73;6.00;;;14.80;99.90;;;-141.84;81.51;19947.97;5012324;28;20298;-61
2023/10/11 00:21:15;;;;;;;7.75;5.60;;;14.90;99.90;;;-141.84;81.96;19862.63;5017911;28;20236;-60
2023/10/11 00:23:48;;;;;;;7.35;5.18;;;14.90;99.90;;;-141.84;82.27;19878.88;5022106;28;20259;-61
2023/10/11 00:26:18;;;;;;;8.30;5.20;;;15.00;99.90;;;-141.84;82.81;19897.16;5022122;28;20673;-61
2023/10/11 00:28:47;;;;;;;5.65;5.03;;;14.90;99.90;;;-141.84;83.22;19824.00;5017680;28;20229;-64
2023/10/11 00:31:20;;;;;;;7.20;4.70;;;14.80;99.90;;;-141.84;83.66;19836.19;5041741;28;20270;-61
2023/10/11 00:33:48;;;;;;;7.50;5.10;;;14.80;99.90;;;-141.84;84.21;19866.69;5029383;28;20221;-61
2023/10/11 00:36:24;;;;;;;7.22;5.28;;;14.70;99.90;;;-141.84;84.53;19858.56;5025424;28;20229;-60
2023/10/11 00:38:52;;;;;;;8.65;5.00;;;14.60;99.90;;;-141.84;85.04;19817.91;5017546;28;20232;-59
2023/10/11 00:41:21;;;;;;;7.00;4.80;;;14.60;99.90;;;-141.84;85.54;19817.91;5025445;28;20285;-60
2023/10/11 00:43:53;;;;;;;8.38;5.28;;;14.50;99.90;;;-141.84;86.11;19801.66;5024932;28;20600;-60
2023/10/11 00:46:44;;;;;;;6.05;5.28;;;14.50;99.90;;;-141.84;86.50;19803.69;5024958;28;20225;-61
2023/10/11 00:49:13;;;;;;;8.20;5.05;;;14.40;99.90;;;-141.84;86.81;19752.88;5011343;28;20232;-59
2023/10/11 00:51:46;;;;;;;7.90;5.35;;;14.30;99.90;;;-141.84;87.12;19756.94;5005865;28;20234;-60
2023/10/11 00:54:16;;;;;;;9.85;5.82;;;14.20;99.90;;;-141.84;86.69;19779.28;5005418;28;20497;-59
2023/10/11 00:56:48;;;;;;;6.88;5.22;;;14.20;99.90;;;-141.84;86.70;19756.94;5008835;28;20214;-59
2023/10/11 00:59:21;;;;;;;7.72;5.20;;;14.20;99.90;;;-141.84;87.08;19730.50;5025378;28;20202;-60
2023/10/11 01:01:50;;;;;;;6.15;5.00;;;14.10;99.90;;;-141.84;87.79;19748.81;5024863;28;20290;-61
2023/10/11 01:04:19;;;;;;;5.30;4.78;;;14.10;99.90;;;-141.84;88.54;19716.28;5024531;28;20230;-61
2023/10/11 01:06:49;;;;;;;8.40;5.38;;;14.10;99.90;;;-141.84;88.79;19740.69;5017264;28;20234;-65
2023/10/11 01:09:24;;;;;;;7.82;4.82;;;13.90;99.90;;;-141.84;89.15;19685.81;5025013;28;20249;-66
2023/10/11 01:11:52;;;;;;;6.85;5.22;;;13.90;99.90;;;-141.84;89.48;19726.44;5025134;28;20225;-64
2023/10/11 01:14:23;;;;;;;7.35;5.38;;;13.90;99.90;;;-141.84;89.65;19702.06;5025354;28;20233;-64
2023/10/11 01:16:52;;;;;;;8.32;5.50;;;13.90;99.90;;;-141.84;89.55;19752.88;5017128;28;20709;-64
2023/10/11 01:19:20;;;;;;;7.53;5.43;;;13.90;99.90;;;-141.84;89.50;19718.31;5014632;28;20699;-65
2023/10/11 01:21:53;;;;;;;7.57;5.40;;;13.80;99.90;;;-141.84;89.59;19708.16;5024437;28;20233;-65
2023/10/11 01:24:22;;;;;;;8.60;5.15;;;13.80;99.90;;;-141.84;89.61;19716.28;5024909;28;20770;-65
2023/10/11 01:26:50;;;;;;;7.72;5.10;;;13.80;99.90;;;-141.84;89.39;19730.50;5016864;28;20284;-65
2023/10/11 01:29:18;;;;;;;7.82;5.05;;;13.90;99.90;;;-141.84;89.71;19740.69;5025014;28;20226;-61
2023/10/11 01:31:47;;;;;;;13.20;6.47;;;13.80;99.90;;;-141.84;89.95;19665.47;5023898;28;20233;-61
2023/10/11 01:34:15;;;;;;;9.27;5.15;;;13.80;99.90;;;-141.84;90.02;19683.78;5024372;28;20230;-60
2023/10/11 01:36:45;;;;;;;8.52;5.30;;;13.80;99.90;;;-141.84;89.90;19693.94;5023992;28;20312;-61
2023/10/11 01:39:15;;;;;;;8.32;5.35;;;13.70;99.90;;;-141.84;89.68;19695.97;5021171;28;20785;-60
2023/10/11 01:41:44;;;;;;;7.20;4.93;;;13.80;99.90;;;-141.84;89.40;19693.94;5024004;28;20237;-60
2023/10/11 01:44:12;;;;;;;5.88;4.95;;;13.80;99.90;;;-141.84;89.07;19726.44;5024338;28;20234;-60
2023/10/11 01:46:41;;;;;;;10.60;5.70;;;13.80;99.90;;;-141.84;89.10;19695.97;5023947;28;20226;-61
2023/10/11 01:49:10;;;;;;;7.80;5.63;;;13.70;99.90;;;-141.84;89.12;19691.91;5004977;28;20242;-60
2023/10/11 01:51:46;;;;;;;7.15;5.00;;;13.80;99.90;;;-141.84;89.07;19647.19;5004085;28;20632;-61
2023/10/11 01:54:16;;;;;;;8.00;5.22;;;13.70;99.90;;;-141.84;89.27;19673.59;5004465;28;20666;-61
2023/10/11 01:56:46;;;;;;;9.38;5.60;;;13.70;99.90;;;-141.84;89.78;19679.72;5019116;28;20230;-59
2023/10/11 01:59:15;;;;;;;8.18;5.28;;;13.80;99.90;;;-141.84;90.13;19649.22;5023144;28;20686;-60
2023/10/11 02:01:55;;;;;;;8.23;5.07;;;13.60;99.90;;;-141.84;90.39;19675.63;5023851;28;20265;-61
2023/10/11 02:04:28;;;;;;;8.48;5.70;;;13.60;99.90;;;-141.84;90.45;19673.59;5023686;28;20359;-61
2023/10/11 02:06:58;;;;;;;7.45;5.55;;;13.50;99.90;;;-141.84;90.47;19655.31;4996998;28;20281;-60
2023/10/11 02:09:27;;;;;;;9.63;6.15;;;13.50;99.90;;;-141.84;90.56;19651.25;5004067;28;20219;-61
2023/10/11 02:11:58;;;;;;;7.57;5.50;;;13.50;99.90;;;-141.84;90.68;19677.66;5004423;28;20596;-59
2023/10/11 02:14:28;;;;;;;8.75;5.35;;;13.50;99.90;;;-141.84;90.90;19653.28;5004091;28;20291;-60
2023/10/11 02:19:36;;;;;;;9.85;5.38;;;13.40;99.90;;;-141.84;90.83;19653.28;5045192;27;20616;-60
2023/10/11 02:22:05;;;;;;;11.38;5.78;;;13.50;99.90;;;-141.84;90.61;19671.56;5020092;28;20276;-61
2023/10/11 02:24:35;;;;;;;8.10;5.50;;;13.40;99.90;;;-141.84;90.49;19669.53;5020280;28;20773;-60
2023/10/11 02:27:06;;;;;;;9.43;5.45;;;13.40;99.90;;;-141.84;87.82;19726.44;5022553;28;20284;-61
2023/10/11 02:29:35;;;;;;;10.05;5.93;;;13.60;99.90;;;-141.84;87.28;19720.34;5020077;28;20210;-61
2023/10/11 02:32:08;;;;;;;10.13;5.78;;;13.70;99.90;;;-141.84;87.60;19712.22;5020178;28;20213;-60
2023/10/11 02:34:41;;;;;;;9.25;5.28;;;13.70;99.90;;;-141.84;87.65;19710.19;5019720;28;20276;-60
2023/10/11 02:37:11;;;;;;;11.20;5.95;;;13.70;99.90;;;-141.84;86.41;19718.31;5012903;28;20667;-59
2023/10/11 02:39:43;;;;;;;9.20;5.15;;;13.80;99.90;;;-141.84;87.05;19712.22;5019646;28;20238;-60
2023/10/11 02:42:11;;;;;;;10.23;5.80;;;13.80;99.90;;;-141.84;87.81;19744.75;5020003;28;20226;-61
2023/10/11 02:44:40;;;;;;;9.10;5.28;;;13.70;99.90;;;-141.84;87.30;19706.13;5019904;28;20194;-60
2023/10/11 02:47:10;;;;;;;7.85;5.15;;;13.80;99.90;;;-141.84;87.67;19687.84;5013181;28;20306;-61
2023/10/11 02:49:40;;;;;;;6.57;5.57;;;13.70;99.90;;;-141.84;86.87;19722.38;5018912;28;20259;-61
2023/10/11 02:52:08;;;;;;;7.22;5.03;;;13.80;99.90;;;-141.84;87.36;19700.03;5019262;28;20307;-61
2023/10/11 02:54:39;;;;;;;10.13;5.10;;;13.80;99.90;;;-141.84;88.05;19748.81;5019514;28;20725;-60
2023/10/11 02:57:17;;;;;;;9.13;5.75;;;13.80;99.90;;;-141.84;88.72;19695.97;5011306;28;20313;-61
2023/10/11 02:59:50;;;;;;;8.82;5.85;;;13.70;99.90;;;-141.84;89.12;19695.97;5018825;28;20248;-61
2023/10/11 03:02:20;;;;;;;8.50;5.47;;;13.70;99.90;;;-141.84;88.77;19685.81;5019606;28;20221;-59
2023/10/11 03:04:51;;;;;;;8.80;5.28;;;13.70;99.90;;;-141.84;88.33;19683.78;5011141;28;20736;-61
2023/10/11 03:07:22;;;;;;;9.38;5.18;;;13.70;99.90;;;-141.84;87.65;19716.28;5019015;28;20280;-60
2023/10/11 03:09:53;;;;;;;12.27;5.53;;;13.70;99.90;;;-141.84;86.87;19716.28;5019273;28;20252;-61
2023/10/11 03:12:30;;;;;;;8.65;5.95;;;13.70;99.90;;;-141.84;87.39;19724.41;5018906;28;20717;-61
2023/10/11 03:15:06;;;;;;;9.00;5.68;;;13.70;99.90;;;-141.84;87.29;19687.84;5011118;28;20249;-60
2023/10/11 03:17:40;;;;;;;10.63;5.80;;;13.70;99.90;;;-141.84;87.60;19695.97;5018979;28;20264;-60
2023/10/11 03:20:35;;;;;;;9.52;5.80;;;13.70;99.90;;;-141.84;86.09;19736.59;5018961;28;20260;-60
2023/10/11 03:23:10;;;;;;;9.30;5.65;;;13.70;99.90;;;-141.84;85.11;19793.50;5015460;28;20242;-65
2023/10/11 03:25:44;;;;;;;9.25;5.68;;;13.80;99.90;;;-141.84;85.63;19740.69;5030074;28;20224;-64
2023/10/11 03:28:15;;;;;;;7.53;5.82;;;13.80;99.90;;;-141.84;85.81;19756.94;5042580;28;20328;-65
2023/10/11 03:30:43;;;;;;;11.02;5.95;;;13.80;99.90;;;-141.84;85.75;19744.75;5026827;28;20244;-65
2023/10/11 03:33:11;;;;;;;11.73;6.25;;;13.80;99.90;;;-141.84;85.97;19718.31;5021813;28;20244;-65
2023/10/11 03:35:43;;;;;;;9.65;5.90;;;13.70;99.90;;;-141.84;85.01;19765.06;5024748;28;20296;-65
2023/10/11 03:38:17;;;;;;;7.38;5.43;;;13.80;99.90;;;-141.84;83.90;19756.94;5025053;28;20229;-65
2023/10/11 03:41:14;;;;;;;7.47;5.65;;;13.80;99.90;;;-141.84;84.03;19795.53;5022375;28;20244;-64
2023/10/11 03:43:44;;;;;;;10.73;5.80;;;13.80;99.90;;;-141.84;84.41;19777.25;5025022;28;20281;-65
2023/10/11 03:46:14;;;;;;;12.05;5.35;;;13.90;99.90;;;-141.84;84.78;19742.72;5024932;28;20320;-65
2023/10/11 03:48:51;;;;;;;9.10;5.75;;;13.90;99.90;;;-141.84;84.83;19754.91;5024958;28;20564;-65
2023/10/11 03:51:22;;;;;;;11.88;5.20;;;13.90;99.90;;;-141.84;84.77;19781.31;5004720;28;20280;-66
2023/10/11 03:53:52;;;;;;;10.60;5.70;;;13.90;99.90;;;-141.84;84.08;19761.00;5005173;28;20237;-64
2023/10/11 03:56:20;;;;;;;9.70;5.68;;;13.90;99.90;;;-141.84;84.19;19811.81;5005386;28;20213;-65
2023/10/11 03:58:50;;;;;;;6.45;4.75;;;13.90;99.90;;;-141.84;83.78;19789.44;4997606;28;20646;-64
2023/10/11 04:01:24;;;;;;;9.00;5.35;;;13.90;99.90;;;-141.84;84.30;19793.50;5004547;28;20235;-65
2023/10/11 04:03:53;;;;;;;6.00;5.03;;;13.90;99.90;;;-141.84;84.38;19769.13;5004745;28;20292;-65
2023/10/11 04:06:23;;;;;;;6.55;5.10;;;14.00;99.90;;;-141.84;83.27;19793.50;5004360;28;20284;-65
2023/10/11 04:08:55;;;;;;;8.20;5.28;;;14.00;99.90;;;-141.84;83.77;19824.00;4996824;28;20238;-65
2023/10/11 04:11:36;;;;;;;14.15;5.55;;;14.00;99.90;;;-141.84;83.71;19793.50;5005474;28;20701;-65
2023/10/11 04:14:12;;;;;;;9.55;4.97;;;14.10;99.90;;;-141.84;82.74;19826.03;5005298;28;20681;-65
2023/10/11 04:16:44;;;;;;;7.93;5.13;;;14.20;99.90;;;-141.84;83.44;19793.50;5004799;28;20240;-65
2023/10/11 04:19:12;;;;;;;9.32;5.05;;;14.10;99.90;;;-141.84;83.96;19817.91;4999914;28;20744;-65
2023/10/11 04:21:55;;;;;;;9.35;4.80;;;14.10;99.90;;;-141.84;83.94;19799.63;5004468;28;20264;-65
2023/10/11 04:24:24;;;;;;;8.02;5.38;;;14.10;99.90;;;-141.84;84.12;19809.78;5004737;28;20304;-65
2023/10/11 04:26:57;;;;;;;10.05;5.55;;;14.10;99.90;;;-141.84;84.71;19795.53;5007102;28;20222;-64
2023/10/11 04:29:31;;;;;;;7.93;5.63;;;14.00;99.90;;;-141.84;85.02;19777.25;5005108;28;20302;-65
2023/10/11 04:32:14;;;;;;;7.45;5.00;;;14.00;99.90;;;-141.84;85.18;19793.50;5004571;28;20241;-65
2023/10/11 04:34:55;;;;;;;6.50;5.57;;;14.00;99.90;;;-141.84;85.36;19752.88;5004587;28;20230;-64
2023/10/11 04:37:43;;;;;;;7.82;5.50;;;14.00;99.90;;;-141.84;85.62;19809.78;5004236;28;20710;-66
2023/10/11 04:40:23;;;;;;;8.00;5.05;;;14.00;99.90;;;-141.84;85.45;19746.78;5003566;28;20249;-65
2023/10/11 04:43:04;;;;;;;9.60;5.38;;;14.00;99.90;;;-141.84;85.57;19781.31;4995613;28;20226;-65
2023/10/11 04:45:44;;;;;;;7.30;5.18;;;14.00;99.90;;;-141.84;85.60;19779.28;5003885;28;20284;-65
2023/10/11 04:48:36;;;;;;;9.50;5.95;;;14.00;99.90;;;-141.84;85.43;19809.78;4997354;28;20228;-65
2023/10/11 04:51:21;;;;;;;9.10;5.25;;;14.10;99.90;;;-141.84;84.56;19801.66;4976161;28;20247;-65
2023/10/11 04:53:58;;;;;;;7.40;5.45;;;14.10;99.90;;;-141.84;84.51;19785.38;4984591;28;20245;-65
2023/10/11 04:59:20;;;;;;;7.90;5.65;;;14.10;99.90;;;-141.84;84.25;19809.78;5010187;28;20238;-65
2023/10/11 05:02:04;;;;;;;8.27;5.75;;;14.10;99.90;;;-141.84;84.16;19824.00;5004792;28;20593;-65
2023/10/11 05:04:33;;;;;;;6.63;4.95;;;14.20;99.90;;;-141.84;84.03;19817.91;5003293;28;20258;-65
2023/10/11 05:07:07;;;;;;;8.85;5.38;;;14.20;99.90;;;-141.84;83.79;19854.50;4976845;28;20238;-65
2023/10/11 05:09:39;;;;;;;7.53;5.72;;;14.30;99.90;;;-141.84;83.73;19826.03;4983987;28;20390;-66
2023/10/11 05:12:10;;;;;;;8.48;5.38;;;14.30;99.90;;;-141.84;83.81;19797.59;4983878;28;20742;-64
2023/10/11 05:14:54;;;;;;;9.07;5.53;;;14.30;99.90;;;-141.84;84.14;19813.84;4976404;28;20212;-65
2023/10/11 05:20:45;;;;;;;8.30;5.65;;;14.30;99.90;;;-141.84;83.59;19856.53;4968396;28;20241;-66
2023/10/11 05:23:13;;;;;;;9.05;5.95;;;14.30;99.90;;;-141.84;83.77;19824.00;4984095;28;20659;-66
2023/10/11 05:25:59;;;;;;;9.30;5.93;;;14.30;99.90;;;-141.84;83.88;19862.63;4989362;28;20277;-66
2023/10/11 05:28:27;;;;;;;9.85;5.70;;;14.40;99.90;;;-141.84;83.98;19860.59;5020176;28;20317;-64
2023/10/11 05:31:19;;;;;;;8.20;5.97;;;14.40;99.90;;;-141.84;83.66;19830.09;4995574;28;20237;-66
2023/10/11 05:53:14;;;;;;;10.55;6.03;;;14.20;99.90;;;-141.84;83.30;19850.41;4976979;28;20233;-65
2023/10/11 05:55:42;;;;;;;6.90;5.40;;;14.20;99.90;;;-141.84;80.98;19887.00;5000530;28;20292;-65
2023/10/11 05:58:13;;;;;;;9.85;5.63;;;14.40;99.90;;;-141.84;81.10;19882.94;4991722;28;20708;-66
2023/10/11 06:00:41;;;;;;;10.45;5.35;;;14.40;99.90;;;-141.84;80.51;19866.69;4992290;28;20230;-65
2023/10/11 06:03:11;;;;;;;8.85;5.38;;;14.50;99.90;;;-141.84;80.53;19876.84;4997033;28;20266;-67
2023/10/11 06:05:40;;;;;;;6.70;5.32;;;14.50;99.90;;;-141.84;80.58;19856.53;5002550;28;20234;-66
2023/10/11 06:08:15;;;;;;;8.63;5.55;;;14.60;99.90;;;-141.84;80.64;19901.22;5000043;28;20211;-65
2023/10/11 06:10:44;;;;;;;9.02;5.65;;;14.60;99.90;;;-141.84;80.30;19889.03;4997874;28;20210;-65
2023/10/11 06:13:14;;;;;;;10.75;6.15;;;14.70;99.90;;;-141.84;78.81;19964.25;4998508;28;20231;-66
2023/10/11 06:15:58;;;;;;;8.25;5.35;;;14.80;99.90;;;-141.84;77.99;19966.28;5002945;28;20238;-66
2023/10/11 06:18:39;;;;;;;10.38;5.30;;;14.90;99.90;;;-141.84;76.28;20037.41;5001955;28;20326;-66
2023/10/11 06:21:18;;;;;;;12.57;5.85;;;15.00;99.90;;;-141.84;75.42;20108.53;4994674;28;20332;-65
2023/10/11 06:23:48;;;;;;;8.27;5.20;;;15.10;99.90;;;-141.84;74.24;20088.22;5002751;28;20249;-65
2023/10/11 06:29:07;;;;;;;10.95;5.30;;;15.50;99.90;;;-141.84;73.84;20120.75;5003360;28;20223;-65
2023/10/11 06:31:40;;;;;;;7.38;5.00;;;15.60;99.90;;;-141.84;72.28;20173.59;4991995;28;20251;-65
2023/10/11 06:34:17;;;;;;;7.45;4.80;;;15.70;99.90;;;-141.84;72.64;20175.63;4986925;28;20417;-66
2023/10/11 06:36:48;;;;;;;11.57;5.60;;;15.80;99.90;;;-141.84;72.26;20208.13;4975926;28;20247;-65
2023/10/11 06:39:55;;;;;;;8.27;5.30;;;15.90;99.90;;;-141.84;71.94;20246.75;4964223;28;20335;-68
2023/10/11 06:42:23;;;;;;;12.10;5.53;;;16.10;99.90;;;-141.84;71.52;20224.41;4975578;28;20238;-69
2023/10/11 06:44:57;;;;;;;10.10;5.25;;;16.10;99.90;;;-141.84;71.43;20265.03;4974246;28;20258;-64
2023/10/11 06:47:33;;;;;;;10.77;5.78;;;16.20;99.90;;;-141.84;69.95;20315.88;4983151;28;20207;-65
2023/10/11 06:50:10;;;;;;;9.15;5.38;;;16.30;99.90;;;-141.84;69.49;20384.97;4973987;28;20227;-65
2023/10/11 06:52:43;;;;;;;11.50;5.63;;;16.50;99.90;;;-141.84;69.73;20336.19;4999921;28;20243;-65
2023/10/11 06:55:16;;;;;;;7.40;5.55;;;16.50;99.90;;;-141.84;69.25;20354.47;5001101;28;20235;-65
2023/10/11 06:57:50;;;;;;;9.73;5.40;;;16.60;99.90;;;-141.84;68.83;20423.59;4999913;28;20232;-65
2023/10/11 07:00:25;;;;;;;10.73;5.50;;;16.70;99.90;;;-141.84;68.59;20437.81;5001402;28;20322;-65
2023/10/11 07:03:06;;;;;;;8.15;5.40;;;16.80;99.90;;;-141.84;68.37;20407.34;4989187;28;20226;-66
2023/10/11 07:05:40;;;;;;;8.10;5.30;;;16.90;99.90;;;-141.84;68.32;20421.56;4994863;28;20271;-66
2023/10/11 07:08:10;;;;;;;9.40;5.32;;;16.90;99.90;;;-141.84;68.58;20433.75;4986711;28;20223;-65
2023/10/11 07:10:45;;;;;;;9.02;5.63;;;17.00;99.90;;;-141.84;68.70;20450.03;4983522;28;20238;-68
2023/10/11 07:13:15;;;;;;;7.80;5.30;;;17.00;99.90;;;-141.84;68.24;20435.78;4983366;28;20237;-71
2023/10/11 07:15:47;;;;;;;11.48;5.13;;;17.10;99.90;;;-141.84;67.46;20517.09;4994265;28;20474;-69
2023/10/11 07:18:24;;;;;;;8.65;5.47;;;17.10;99.90;;;-141.84;67.77;20515.06;5002002;28;20250;-74
2023/10/11 07:21:07;;;;;;;9.82;5.28;;;17.30;99.90;;;-141.84;68.32;20474.41;4984391;28;20310;-71
2023/10/11 07:23:55;;;;;;;8.48;5.07;;;17.30;99.90;;;-141.84;67.54;20549.63;5011951;28;20301;-71
2023/10/11 07:29:13;;;;;;;9.85;4.95;;;17.40;99.90;;;-141.84;67.48;20506.94;5007210;28;20300;-69
2023/10/11 07:31:48;;;;;;;6.55;4.38;;;17.40;99.90;;;-141.84;67.80;20549.63;4984909;28;20727;-70
2023/10/11 07:34:20;;;;;;;10.77;5.40;;;17.50;99.90;;;-141.84;67.54;20557.75;4986550;28;20227;-76
2023/10/11 07:36:50;;;;;;;7.55;4.88;;;17.50;99.90;;;-141.84;67.74;20541.50;4982585;28;20673;-77
2023/10/11 07:39:25;;;;;;;10.32;5.38;;;17.50;99.90;;;-141.84;67.57;20569.94;5003201;28;20235;-80
2023/10/11 07:42:02;;;;;;;6.95;4.95;;;17.50;99.90;;;-141.84;68.03;20588.25;5002298;28;20705;-72
2023/10/11 07:44:31;;;;;;;8.25;4.90;;;17.50;99.90;;;-141.84;68.18;20517.09;5001727;28;20210;-64
2023/10/11 07:47:02;;;;;;;7.90;5.15;;;17.50;99.90;;;-141.84;68.49;20541.50;4982149;28;20883;-71
2023/10/11 07:49:37;;;;;;;7.75;4.63;;;17.50;99.90;;;-141.84;68.79;20480.50;4986381;28;20585;-69
2023/10/11 07:52:09;;;;;;;7.63;5.43;;;17.40;99.90;;;-141.84;68.85;20533.34;4982292;28;20234;-68
2023/10/11 07:54:40;;;;;;;6.07;4.75;;;17.40;99.90;;;-141.84;68.80;20527.25;4997963;28;20238;-71
2023/10/11 07:57:13;;;;;;;8.30;5.15;;;17.50;99.90;;;-141.84;68.46;20612.63;4983665;28;20330;-74
2023/10/11 07:59:42;;;;;;;9.23;5.30;;;17.60;99.90;;;-141.84;67.61;20622.81;4985546;28;20592;-73
2023/10/11 08:02:26;;;;;;;6.20;4.80;;;17.80;99.90;;;-141.84;67.24;20653.28;4982561;28;20737;-75
2023/10/11 08:04:57;;;;;;;8.70;5.28;;;17.90;99.90;;;-141.84;66.63;20700.03;4973090;28;20244;-76
2023/10/11 08:07:26;;;;;;;10.23;5.05;;;18.00;99.90;;;-141.84;65.63;20724.44;4988265;28;20227;-75
2023/10/11 08:09:55;;;;;;;7.82;4.70;;;18.20;99.90;;;-141.84;65.34;20726.47;5004939;28;20661;-74
2023/10/11 08:12:24;;;;;;;10.07;5.30;;;18.30;99.90;;;-141.84;64.63;20730.53;4996894;28;20259;-76
2023/10/11 08:14:56;;;;;;;7.82;4.80;;;18.40;99.90;;;-141.84;63.25;20789.50;4977097;28;20227;-77
2023/10/11 08:17:29;;;;;;;9.57;4.97;;;18.50;99.90;;;-141.84;63.42;20832.19;4985513;28;20219;-72
2023/10/11 08:20:00;;;;;;;8.93;4.93;;;18.70;99.90;;;-141.84;63.24;20828.13;4965602;28;20231;-71
2023/10/11 08:22:28;;;;;;;7.65;4.47;;;18.70;99.90;;;-141.84;62.71;20848.44;4999107;28;20230;-72
2023/10/11 08:24:58;;;;;;;7.60;4.75;;;18.90;99.90;;;-141.84;61.68;20919.59;5015513;28;20229;-71
2023/10/11 08:27:28;;;;;;;9.00;4.78;;;19.00;99.90;;;-141.84;60.33;20974.50;5003548;28;20300;-72
2023/10/11 08:30:08;;;;;;;6.47;4.45;;;19.20;99.90;;;-141.84;60.09;20960.25;5003828;28;20615;-76
2023/10/11 08:32:42;;;;;;;6.50;4.45;;;19.30;99.90;;;-141.84;58.48;21055.81;5003072;28;20286;-69
2023/10/11 08:35:17;;;;;;;9.55;4.78;;;19.50;99.90;;;-141.84;57.64;21139.16;5001230;28;20210;-73
2023/10/11 08:37:52;;;;;;;8.05;4.55;;;19.70;99.90;;;-141.84;57.21;21143.22;5004293;28;20759;-73
2023/10/11 08:40:22;;;;;;;9.25;4.65;;;19.90;99.90;;;-141.84;57.43;21155.44;5003259;28;20345;-72
2023/10/11 08:42:52;;;;;;;8.07;5.00;;;19.90;99.90;;;-141.84;57.39;21118.84;4996109;28;20235;-71
2023/10/11 08:45:29;;;;;;;8.50;4.88;;;20.00;99.90;;;-141.84;56.77;21226.59;5003322;28;20606;-67
2023/10/11 08:47:59;;;;;;;8.18;4.95;;;20.10;99.90;;;-141.84;57.45;21216.41;5003316;28;20222;-71
2023/10/11 08:50:34;;;;;;;9.10;4.68;;;20.20;99.90;;;-141.84;56.70;21263.19;5004168;28;20318;-75
2023/10/11 08:53:08;;;;;;;7.57;4.72;;;20.40;99.90;;;-141.84;56.41;21295.72;4978101;28;20301;-77
2023/10/11 08:55:39;;;;;;;11.57;4.70;;;20.50;99.90;;;-141.84;57.35;21277.41;5005072;28;20222;-79
2023/10/11 08:58:12;;;;;;;11.52;4.53;;;20.50;99.90;;;-141.84;57.37;21273.34;5004419;28;20270;-74
2023/10/11 09:00:47;;;;;;;8.07;4.50;;;20.50;99.90;;;-141.84;55.26;21307.91;5003106;28;20226;-74
2023/10/11 09:03:18;;;;;;;8.45;4.85;;;20.70;99.90;;;-141.84;55.75;21307.91;5008038;28;20237;-72
2023/10/11 09:05:54;;;;;;;7.80;4.82;;;20.70;99.90;;;-141.84;55.82;21362.81;5014399;28;20249;-69
2023/10/11 09:08:26;;;;;;;8.35;4.88;;;20.80;99.90;;;-141.84;55.91;21360.78;5003899;28;20210;-72
2023/10/11 09:11:12;;;;;;;9.80;5.05;;;20.80;99.90;;;-141.84;55.64;21379.06;4995989;28;20238;-70
2023/10/11 09:13:42;;;;;;;6.15;4.30;;;20.80;99.90;;;-141.84;55.94;21377.03;5003530;28;20312;-71
2023/10/11 09:16:34;;;;;;;6.93;4.60;;;20.90;99.90;;;-141.84;54.62;21442.09;5003858;28;20234;-72
2023/10/11 09:19:10;;;;;;;7.60;4.40;;;21.00;99.90;;;-141.84;54.62;21466.50;4995439;28;20254;-63
2023/10/11 09:21:42;;;;;;;7.00;4.43;;;21.00;99.90;;;-141.84;54.11;21431.94;5003608;28;20586;-64
2023/10/11 09:24:24;;;;;;;8.18;4.55;;;21.10;99.90;;;-141.84;53.50;21436.00;5002746;28;20688;-64
2023/10/11 09:27:12;;;;;;;7.70;4.45;;;21.10;99.90;;;-141.84;53.51;21464.47;4994780;28;20252;-64
2023/10/11 09:29:42;;;;;;;11.73;4.80;;;21.10;99.90;;;-141.84;53.22;21492.94;5003162;28;20589;-74
2023/10/11 09:32:13;;;;;;;10.35;4.63;;;21.20;99.90;;;-141.84;52.62;21488.88;5003636;28;20214;-71
2023/10/11 09:34:43;;;;;;;8.88;4.22;;;21.20;99.90;;;-141.84;52.97;21452.25;4982961;28;20273;-70
2023/10/11 09:37:12;;;;;;;9.60;4.75;;;21.20;99.90;;;-141.84;52.19;21531.56;4978052;28;20237;-66
2023/10/11 09:39:42;;;;;;;9.45;4.53;;;21.20;99.90;;;-141.84;52.30;21519.34;4983633;28;20227;-69
2023/10/11 09:42:13;;;;;;;9.13;4.57;;;21.30;99.90;;;-141.84;51.24;21547.81;4983231;28;20242;-67
2023/10/11 09:44:47;;;;;;;8.57;4.43;;;21.30;99.90;;;-141.84;52.71;21480.72;4993615;28;20203;-70
2023/10/11 09:47:17;;;;;;;9.05;4.53;;;21.20;99.90;;;-141.84;52.03;21533.59;5003690;28;20218;-72
2023/10/11 09:49:52;;;;;;;8.27;4.93;;;21.30;99.90;;;-141.84;51.63;21525.47;5003211;28;20230;-71
2023/10/11 09:52:23;;;;;;;6.05;4.40;;;21.30;99.90;;;-141.84;52.13;21568.16;5002710;28;20233;-67
2023/10/11 09:54:53;;;;;;;9.00;4.70;;;21.30;99.90;;;-141.84;51.61;21551.91;4995671;28;20245;-67
2023/10/11 09:57:35;;;;;;;7.97;4.68;;;21.40;99.90;;;-141.84;51.74;21545.78;4994684;28;20292;-74
2023/10/11 10:00:17;;;;;;;9.27;4.40;;;21.50;99.90;;;-141.84;49.95;21586.47;5002503;28;20721;-69
2023/10/11 10:02:52;;;;;;;7.25;4.10;;;21.60;99.90;;;-141.84;50.37;21643.38;4999982;28;20218;-73
2023/10/11 10:05:25;;;;;;;7.38;4.43;;;21.80;99.90;;;-141.84;50.19;21677.97;4993933;28;20214;-70
2023/10/11 10:07:54;;;;;;;5.93;4.20;;;21.80;99.90;;;-141.84;50.43;21651.53;5002601;28;20296;-69
2023/10/11 10:10:25;;;;;;;8.77;4.30;;;21.90;99.90;;;-141.84;48.74;21704.38;5002052;28;20257;-70
2023/10/11 10:12:59;;;;;;;10.18;4.28;;;21.90;99.90;;;-141.84;47.69;21730.81;4995254;28;20238;-70
2023/10/11 10:15:32;;;;;;;7.70;4.47;;;22.00;99.90;;;-141.84;47.59;21738.97;5003038;28;20230;-69
2023/10/11 10:18:20;;;;;;;8.88;4.10;;;22.10;99.90;;;-141.84;48.42;21741.00;5002830;28;20332;-70
2023/10/11 10:21:02;;;;;;;8.63;4.45;;;22.10;99.90;;;-141.84;47.00;21728.78;4994985;28;20208;-69
2023/10/11 10:23:37;;;;;;;8.05;3.83;;;22.10;99.90;;;-141.84;47.90;21747.09;5003807;28;20246;-70
2023/10/11 10:26:43;;;;;;;5.80;3.78;;;22.20;99.90;;;-141.84;47.46;21779.63;4982793;28;20223;-70
2023/10/11 10:29:12;;;;;;;9.13;4.28;;;22.30;99.90;;;-141.84;47.62;21787.75;4998103;28;20674;-69
2023/10/11 10:32:06;;;;;;;11.45;8.20;;;22.40;99.90;;;-141.84;47.86;21804.03;5002675;28;20218;-73
2023/10/11 10:34:35;;;;;;;7.50;4.53;;;22.40;99.90;;;-141.84;47.36;21814.19;4986342;28;20278;-71
2023/10/11 10:37:08;;;;;;;7.90;4.40;;;22.50;99.90;;;-141.84;47.29;21877.22;4973737;28;20297;-72
2023/10/11 10:39:48;;;;;;;9.95;4.07;;;22.60;99.90;;;-141.84;48.10;21854.88;4984238;28;20245;-70
2023/10/11 10:42:16;;;;;;;7.60;4.15;;;22.60;99.90;;;-141.84;45.49;21944.34;4985678;28;20280;-70
2023/10/11 10:44:54;;;;;;;7.40;4.32;;;22.70;99.90;;;-141.84;45.36;21915.88;4992706;28;20612;-71
2023/10/11 10:47:31;;;;;;;5.35;3.70;;;22.70;99.90;;;-141.84;45.33;21944.34;4994250;28;20431;-69
2023/10/11 10:50:16;;;;;;;7.95;4.57;;;22.80;99.90;;;-141.84;44.88;21962.63;4989203;28;20218;-68
2023/10/11 10:52:53;;;;;;;6.72;3.88;;;22.90;99.90;;;-141.84;44.93;21993.13;5011308;28;20223;-70
2023/10/11 10:55:20;;;;;;;8.45;4.20;;;22.90;99.90;;;-141.84;45.12;22033.81;5006269;28;20222;-69
2023/10/11 10:57:49;;;;;;;5.57;3.88;;;23.00;99.90;;;-141.84;46.00;22021.59;5015962;28;20764;-69
2023/10/11 11:00:23;;;;;;;9.85;4.25;;;23.00;99.90;;;-141.84;44.26;22023.63;5020836;28;20307;-69
2023/10/11 11:02:52;;;;;;;7.38;4.03;;;23.10;99.90;;;-141.84;44.65;22039.91;4998587;28;20265;-76
2023/10/11 11:05:29;;;;;;;8.20;4.07;;;23.10;99.90;;;-141.84;44.86;22011.44;5007074;28;20206;-74